Time;durP1;ratioP1;P1;durP2;ratioP2;P2;SDS_P1;SDS_P2;PMS_P1;PMS_P2;Temp;Humidity;BMP_temperature;BMP_pressure;BME280_temperature;BME280_humidity;BME280_pressure;Samples;Min_cycle;Max_cycle;Signal;HPM_P1;HPM_P2
2023/04/29 00:00:52;;;;;;;1.98;1.88;;;9.80;67.50;;;;;;5064386;28;20053;-58
2023/04/29 00:03:18;;;;;;;2.75;2.13;;;9.70;67.80;;;;;;5064555;28;20478;-58
2023/04/29 00:05:44;;;;;;;2.97;2.35;;;9.70;67.80;;;;;;5068868;28;20044;-59
2023/04/29 00:08:10;;;;;;;3.38;2.35;;;9.70;67.80;;;;;;5071419;28;20490;-57
2023/04/29 00:10:36;;;;;;;3.22;2.38;;;9.70;67.60;;;;;;5070991;28;20482;-47
2023/04/29 00:13:02;;;;;;;3.15;2.35;;;9.70;67.60;;;;;;5066088;28;20136;-48
2023/04/29 00:15:28;;;;;;;3.42;2.20;;;9.70;67.60;;;;;;5069700;28;20040;-58
2023/04/29 00:17:54;;;;;;;2.30;2.10;;;9.70;67.30;;;;;;5059889;28;20033;-60
2023/04/29 00:20:20;;;;;;;2.63;2.40;;;9.60;67.50;;;;;;5068895;28;20021;-60
2023/04/29 00:22:46;;;;;;;2.28;2.10;;;9.60;68.20;;;;;;5066093;28;20493;-60
2023/04/29 00:25:11;;;;;;;2.40;2.20;;;9.60;67.40;;;;;;5066518;28;20025;-58
2023/04/29 00:27:38;;;;;;;2.60;2.40;;;9.60;67.40;;;;;;5062456;28;20425;-57
2023/04/29 00:30:06;;;;;;;2.80;2.08;;;9.60;67.20;;;;;;5065531;28;20036;-58
2023/04/29 00:32:31;;;;;;;2.53;2.13;;;9.60;67.40;;;;;;5068877;28;20707;-58
2023/04/29 00:34:57;;;;;;;2.47;2.10;;;9.60;67.70;;;;;;5071223;28;20037;-59
2023/04/29 00:37:22;;;;;;;2.55;2.20;;;9.50;67.50;;;;;;5069051;28;20483;-58
2023/04/29 00:39:48;;;;;;;2.40;2.13;;;9.60;67.40;;;;;;5068540;28;20028;-58
2023/04/29 00:42:14;;;;;;;2.10;1.90;;;9.50;67.60;;;;;;5074665;28;20024;-58
2023/04/29 00:44:39;;;;;;;2.88;2.55;;;9.50;67.70;;;;;;5062077;28;20107;-58
2023/04/29 00:47:10;;;;;;;2.83;2.30;;;9.50;67.60;;;;;;5069155;28;20101;-59
2023/04/29 00:49:39;;;;;;;2.22;2.03;;;9.50;67.30;;;;;;5072627;28;20036;-59
2023/04/29 00:52:06;;;;;;;2.30;2.10;;;9.50;67.30;;;;;;5069616;28;20025;-58
2023/04/29 00:54:34;;;;;;;2.35;2.10;;;9.50;67.10;;;;;;5067635;28;20094;-58
2023/04/29 00:57:01;;;;;;;3.17;2.50;;;9.50;67.20;;;;;;5071439;28;20413;-59
2023/04/29 00:59:31;;;;;;;2.40;2.20;;;9.50;67.30;;;;;;5065707;28;20040;-58
2023/04/29 01:01:59;;;;;;;2.33;2.13;;;9.50;67.60;;;;;;5066936;28;20021;-51
2023/04/29 01:04:25;;;;;;;2.60;2.30;;;9.50;67.70;;;;;;5052870;28;20086;-49
2023/04/29 01:07:23;;;;;;;2.80;2.38;;;9.50;67.70;;;;;;5059504;28;20449;-59
2023/04/29 01:10:13;;;;;;;2.40;2.20;;;9.50;67.10;;;;;;5066026;28;20053;-58
2023/04/29 01:12:48;;;;;;;2.45;2.00;;;9.40;68.10;;;;;;5062433;28;20031;-47
2023/04/29 01:15:21;;;;;;;3.47;2.38;;;9.50;67.70;;;;;;5058479;28;20600;-52
2023/04/29 01:18:02;;;;;;;2.40;2.25;;;9.40;67.50;;;;;;5054603;28;20029;-48
2023/04/29 01:20:30;;;;;;;2.55;2.35;;;9.40;67.50;;;;;;5070641;28;20043;-51
2023/04/29 01:22:55;;;;;;;2.55;2.25;;;9.40;67.40;;;;;;5072492;28;20396;-48
2023/04/29 01:25:24;;;;;;;3.10;2.42;;;9.30;67.30;;;;;;5061305;28;20032;-52
2023/04/29 01:28:25;;;;;;;3.20;2.50;;;9.30;67.30;;;;;;5068802;28;20086;-49
2023/04/29 01:31:22;;;;;;;2.33;2.13;;;9.30;67.30;;;;;;5058740;28;20533;-58
2023/04/29 01:34:11;;;;;;;3.42;2.40;;;9.30;67.60;;;;;;5071069;28;20038;-57
2023/04/29 01:37:17;;;;;;;2.35;2.08;;;9.30;68.10;;;;;;5071915;28;20086;-58
2023/04/29 01:40:18;;;;;;;3.58;2.30;;;9.30;67.70;;;;;;5065523;28;20453;-58
2023/04/29 01:43:00;;;;;;;3.13;2.45;;;9.30;67.90;;;;;;5058626;28;20029;-58
2023/04/29 01:45:27;;;;;;;3.22;2.63;;;9.20;67.80;;;;;;5066981;28;20028;-57
2023/04/29 01:47:57;;;;;;;3.15;2.25;;;9.20;67.60;;;;;;5071586;28;20032;-58
2023/04/29 01:50:23;;;;;;;2.90;2.30;;;9.20;67.60;;;;;;5070857;28;20024;-58
2023/04/29 01:52:49;;;;;;;2.42;2.20;;;9.20;67.60;;;;;;5071362;28;20153;-59
2023/04/29 01:55:15;;;;;;;2.63;2.42;;;9.20;67.70;;;;;;5059066;28;20033;-59
2023/04/29 01:57:40;;;;;;;2.90;2.15;;;9.20;68.00;;;;;;5069738;28;20523;-58
2023/04/29 02:00:07;;;;;;;2.40;2.08;;;9.10;68.00;;;;;;5074200;28;20032;-58
2023/04/29 02:02:33;;;;;;;1.95;1.85;;;9.10;68.10;;;;;;5060113;28;20048;-59
2023/04/29 02:04:59;;;;;;;2.55;2.30;;;9.10;68.00;;;;;;5070661;28;20021;-59
2023/04/29 02:07:25;;;;;;;2.42;2.22;;;9.10;68.20;;;;;;5070883;28;20044;-49
2023/04/29 02:09:50;;;;;;;3.00;2.40;;;9.10;68.20;;;;;;5059609;28;20043;-51
2023/04/29 02:12:16;;;;;;;4.03;2.65;;;9.10;68.40;;;;;;5070158;28;20029;-57
2023/04/29 02:14:42;;;;;;;2.45;2.20;;;9.00;68.00;;;;;;5070330;28;20032;-58
2023/04/29 02:17:07;;;;;;;3.08;2.55;;;9.00;68.00;;;;;;5071278;28;20033;-58
2023/04/29 02:19:33;;;;;;;2.67;2.40;;;9.10;68.30;;;;;;5069669;28;20028;-58
2023/04/29 02:21:59;;;;;;;2.28;2.17;;;9.00;68.10;;;;;;5071871;28;20027;-59
2023/04/29 02:24:24;;;;;;;2.97;2.28;;;9.00;68.20;;;;;;5070979;28;20032;-58
2023/04/29 02:26:50;;;;;;;2.75;2.47;;;9.00;68.20;;;;;;5070054;28;20029;-57
2023/04/29 02:29:16;;;;;;;2.45;2.25;;;9.00;68.20;;;;;;5070453;28;20040;-58
2023/04/29 02:31:41;;;;;;;2.58;2.30;;;9.00;68.20;;;;;;5069240;28;20130;-59
2023/04/29 02:34:07;;;;;;;3.50;2.53;;;9.00;68.10;;;;;;5075386;28;20060;-58
2023/04/29 02:36:33;;;;;;;3.55;2.20;;;9.00;68.00;;;;;;5071339;28;20036;-60
2023/04/29 02:38:59;;;;;;;2.33;2.13;;;9.00;68.30;;;;;;5071191;28;20028;-60
2023/04/29 02:41:25;;;;;;;3.53;2.13;;;8.90;68.10;;;;;;5070982;28;20028;-60
2023/04/29 02:43:50;;;;;;;2.53;2.20;;;8.90;68.20;;;;;;5057468;28;20028;-61
2023/04/29 02:46:17;;;;;;;2.50;2.17;;;8.90;68.30;;;;;;5060073;28;20028;-47
2023/04/29 02:48:43;;;;;;;3.90;2.13;;;8.90;68.50;;;;;;5069552;28;20033;-48
2023/04/29 02:51:09;;;;;;;2.92;2.22;;;8.90;68.40;;;;;;5058854;28;20030;-60
2023/04/29 02:53:34;;;;;;;3.08;2.30;;;8.90;68.40;;;;;;5057857;28;20027;-61
2023/04/29 02:56:00;;;;;;;2.90;2.40;;;8.90;68.30;;;;;;5059992;28;20780;-58
2023/04/29 02:58:26;;;;;;;2.45;2.25;;;8.90;68.50;;;;;;5066220;28;20123;-60
2023/04/29 03:00:52;;;;;;;2.75;2.53;;;8.90;68.50;;;;;;5052499;28;20418;-60
2023/04/29 03:03:18;;;;;;;2.50;2.30;;;8.90;68.40;;;;;;5063877;28;20028;-56
2023/04/29 03:05:44;;;;;;;2.45;2.25;;;8.90;68.40;;;;;;5058573;28;20067;-60
2023/04/29 03:08:10;;;;;;;2.47;2.17;;;8.90;68.60;;;;;;5072463;28;20064;-60
2023/04/29 03:10:36;;;;;;;2.40;2.20;;;8.80;68.30;;;;;;5063480;28;20064;-58
2023/04/29 03:13:01;;;;;;;2.63;2.30;;;8.90;68.40;;;;;;5066589;28;20420;-59
2023/04/29 03:15:28;;;;;;;3.85;2.25;;;8.90;68.10;;;;;;5069858;28;20067;-59
2023/04/29 03:17:54;;;;;;;3.00;2.30;;;8.90;68.40;;;;;;5070296;28;20028;-60
2023/04/29 03:20:20;;;;;;;2.13;2.00;;;8.90;68.50;;;;;;5070185;28;20026;-58
2023/04/29 03:22:46;;;;;;;2.50;2.25;;;8.90;68.70;;;;;;5055891;28;20032;-60
2023/04/29 03:25:12;;;;;;;2.45;2.05;;;8.90;68.40;;;;;;5064494;28;20112;-60
2023/04/29 03:27:38;;;;;;;2.40;2.20;;;8.90;68.40;;;;;;5068487;28;20028;-58
2023/04/29 03:30:04;;;;;;;2.15;2.05;;;8.90;68.50;;;;;;5075748;28;20027;-61
2023/04/29 03:32:30;;;;;;;2.85;2.47;;;9.00;68.50;;;;;;5071823;28;20044;-58
2023/04/29 03:34:56;;;;;;;2.75;2.40;;;9.00;68.50;;;;;;5062202;28;20037;-60
2023/04/29 03:37:22;;;;;;;2.85;2.53;;;9.00;68.40;;;;;;5064144;28;20032;-58
2023/04/29 03:39:47;;;;;;;2.67;2.33;;;9.00;68.30;;;;;;5069476;28;20028;-60
2023/04/29 03:42:13;;;;;;;3.72;2.50;;;9.00;68.20;;;;;;5073159;28;20150;-60
2023/04/29 03:44:39;;;;;;;2.90;2.60;;;9.00;68.30;;;;;;5065533;28;20044;-60
2023/04/29 03:47:05;;;;;;;2.55;2.35;;;9.00;68.40;;;;;;5072756;28;20039;-61
2023/04/29 03:49:31;;;;;;;2.75;2.03;;;9.00;68.50;;;;;;5062392;28;20109;-58
2023/04/29 03:51:56;;;;;;;2.40;2.20;;;9.00;68.40;;;;;;5059227;28;20065;-59
2023/04/29 03:54:22;;;;;;;3.33;2.03;;;9.10;68.50;;;;;;5062319;28;20028;-59
2023/04/29 03:56:48;;;;;;;3.05;2.58;;;9.10;68.40;;;;;;5065300;28;20065;-60
2023/04/29 03:59:14;;;;;;;2.20;2.10;;;9.10;68.50;;;;;;5064378;28;20035;-57
2023/04/29 04:01:39;;;;;;;2.90;2.30;;;9.10;68.70;;;;;;5062603;28;20532;-58
2023/04/29 04:04:05;;;;;;;2.78;2.22;;;9.20;68.60;;;;;;5055680;28;20025;-58
2023/04/29 04:06:31;;;;;;;2.40;2.20;;;9.30;68.30;;;;;;5073263;28;20045;-57
2023/04/29 04:08:56;;;;;;;2.13;1.98;;;9.60;69.20;;;;;;5073926;28;20046;-59
2023/04/29 04:11:22;;;;;;;3.15;2.00;;;9.80;68.20;;;;;;5067020;28;20111;-58
2023/04/29 04:13:48;;;;;;;2.30;2.10;;;10.20;68.40;;;;;;5067775;28;20459;-57
2023/04/29 04:16:14;;;;;;;2.58;1.80;;;10.60;67.60;;;;;;5059469;28;20107;-57
2023/04/29 04:18:40;;;;;;;2.20;2.00;;;11.00;67.00;;;;;;5060508;28;20421;-60
2023/04/29 04:21:10;;;;;;;4.63;2.10;;;11.30;65.80;;;;;;5066780;28;20052;-58
2023/04/29 04:23:39;;;;;;;1.90;1.80;;;11.50;64.80;;;;;;5057429;28;20033;-59
2023/04/29 04:26:05;;;;;;;2.55;2.00;;;11.40;64.10;;;;;;5068246;28;20027;-59
2023/04/29 04:28:30;;;;;;;2.00;1.90;;;11.30;64.20;;;;;;5068107;28;20390;-58
2023/04/29 04:30:56;;;;;;;2.42;2.17;;;11.10;63.80;;;;;;5073615;28;20056;-51
2023/04/29 04:33:22;;;;;;;2.30;2.13;;;10.90;63.80;;;;;;5063517;28;20499;-52
2023/04/29 04:35:47;;;;;;;2.10;2.00;;;10.70;64.10;;;;;;5065425;28;20103;-60
2023/04/29 04:38:14;;;;;;;2.55;2.35;;;10.50;63.90;;;;;;5067983;28;20123;-60
2023/04/29 04:40:42;;;;;;;2.95;2.25;;;10.40;64.30;;;;;;5067295;28;20060;-58
2023/04/29 04:43:08;;;;;;;3.80;2.20;;;10.20;64.30;;;;;;5069590;28;20051;-58
2023/04/29 04:45:34;;;;;;;2.75;2.33;;;10.10;64.40;;;;;;5067056;28;20082;-58
2023/04/29 04:47:59;;;;;;;2.38;2.13;;;10.00;64.80;;;;;;5067914;28;20036;-58
2023/04/29 04:50:28;;;;;;;2.50;2.30;;;9.90;65.00;;;;;;5066954;28;20036;-58
2023/04/29 04:52:55;;;;;;;2.42;2.22;;;9.90;65.20;;;;;;5064620;28;20393;-55
2023/04/29 04:55:21;;;;;;;2.55;2.13;;;9.80;65.40;;;;;;5063916;28;20498;-57
2023/04/29 04:57:46;;;;;;;2.47;2.17;;;9.80;65.50;;;;;;5064272;28;20499;-56
2023/04/29 05:00:12;;;;;;;2.53;2.33;;;9.80;65.80;;;;;;5068936;28;20154;-58
2023/04/29 05:02:38;;;;;;;4.65;2.22;;;9.80;65.70;;;;;;5060336;28;20679;-58
2023/04/29 05:05:04;;;;;;;2.45;2.25;;;9.80;65.80;;;;;;5069648;28;20099;-58
2023/04/29 05:07:31;;;;;;;2.60;2.40;;;9.80;65.80;;;;;;5066596;28;20063;-57
2023/04/29 05:09:57;;;;;;;2.40;2.20;;;9.80;65.80;;;;;;5065291;28;20059;-57
2023/04/29 05:12:24;;;;;;;2.75;2.10;;;9.80;66.00;;;;;;5067213;28;20115;-50
2023/04/29 05:14:52;;;;;;;2.33;2.10;;;9.80;66.50;;;;;;5066942;28;20025;-48
2023/04/29 05:17:18;;;;;;;2.70;2.17;;;9.90;66.50;;;;;;5070577;28;20047;-59
2023/04/29 05:19:43;;;;;;;2.78;2.30;;;9.90;66.70;;;;;;5065824;28;20025;-58
2023/04/29 05:22:09;;;;;;;2.95;2.10;;;9.90;66.60;;;;;;5068401;28;20502;-58
2023/04/29 05:24:34;;;;;;;3.22;2.10;;;10.00;66.40;;;;;;5068638;28;20043;-59
2023/04/29 05:27:00;;;;;;;2.33;2.13;;;10.00;66.50;;;;;;5063184;28;20031;-47
2023/04/29 05:29:26;;;;;;;2.20;2.10;;;10.00;66.70;;;;;;5068416;28;20464;-51
2023/04/29 05:31:52;;;;;;;2.25;2.05;;;10.10;66.90;;;;;;5064569;28;20081;-59
2023/04/29 05:34:18;;;;;;;2.45;2.25;;;10.10;66.60;;;;;;5068348;28;20028;-60
2023/04/29 05:36:44;;;;;;;2.30;2.10;;;10.10;66.60;;;;;;5070803;28;20028;-59
2023/04/29 05:39:09;;;;;;;3.33;2.22;;;10.10;66.70;;;;;;5066608;28;20131;-59
2023/04/29 05:41:35;;;;;;;3.35;2.17;;;10.10;66.90;;;;;;5072952;28;20056;-55
2023/04/29 05:44:00;;;;;;;2.65;2.20;;;10.20;67.00;;;;;;5063429;28;20378;-49
2023/04/29 05:46:26;;;;;;;2.30;2.10;;;10.20;67.00;;;;;;5062949;28;20028;-56
2023/04/29 05:48:52;;;;;;;1.95;1.85;;;10.30;67.30;;;;;;5065085;28;20031;-54
2023/04/29 05:51:17;;;;;;;2.95;2.33;;;10.30;67.30;;;;;;5067940;28;20542;-53
2023/04/29 05:53:43;;;;;;;2.20;2.00;;;10.40;67.20;;;;;;5064834;28;20032;-51
2023/04/29 05:56:09;;;;;;;1.73;1.63;;;10.40;67.10;;;;;;5070208;28;20056;-57
2023/04/29 05:58:35;;;;;;;2.83;2.20;;;10.50;67.40;;;;;;5066402;28;20032;-58
2023/04/29 06:01:01;;;;;;;2.10;1.90;;;10.50;67.30;;;;;;5061339;28;20088;-57
2023/04/29 06:03:27;;;;;;;2.10;1.88;;;10.60;67.30;;;;;;5068290;28;20055;-56
2023/04/29 06:05:53;;;;;;;2.10;1.90;;;10.70;67.30;;;;;;5065425;28;20035;-57
2023/04/29 06:08:19;;;;;;;2.35;2.15;;;10.70;67.30;;;;;;5065635;28;20047;-58
2023/04/29 06:10:45;;;;;;;2.28;2.00;;;10.80;67.30;;;;;;5063733;28;20358;-60
2023/04/29 06:13:11;;;;;;;2.13;2.03;;;10.80;67.10;;;;;;5068232;28;20406;-60
2023/04/29 06:15:36;;;;;;;2.70;2.13;;;10.90;67.10;;;;;;5062688;28;20036;-60
2023/04/29 06:18:02;;;;;;;1.88;1.77;;;11.00;67.10;;;;;;5066063;28;20379;-60
2023/04/29 06:20:28;;;;;;;2.03;1.92;;;11.10;67.80;;;;;;5065788;28;20040;-60
2023/04/29 06:22:53;;;;;;;2.25;2.05;;;11.10;67.10;;;;;;5065151;28;20021;-60
2023/04/29 06:25:19;;;;;;;1.85;1.75;;;11.20;66.90;;;;;;5059937;28;20124;-60
2023/04/29 06:27:45;;;;;;;1.73;1.63;;;11.30;66.90;;;;;;5056221;28;20637;-60
2023/04/29 06:30:10;;;;;;;1.98;1.77;;;11.30;66.80;;;;;;5053786;28;20041;-59
2023/04/29 06:32:38;;;;;;;2.75;1.80;;;11.30;66.70;;;;;;5063803;28;20036;-61
2023/04/29 06:35:04;;;;;;;1.83;1.70;;;11.40;66.60;;;;;;5057420;28;20036;-60
2023/04/29 06:37:29;;;;;;;2.17;1.80;;;11.50;66.40;;;;;;5059128;28;20093;-58
2023/04/29 06:39:55;;;;;;;1.95;1.85;;;11.50;65.80;;;;;;5061391;28;20418;-58
2023/04/29 06:42:20;;;;;;;2.80;1.98;;;11.60;65.00;;;;;;5054606;28;20033;-57
2023/04/29 06:44:46;;;;;;;2.05;1.90;;;11.60;64.80;;;;;;5055270;28;20040;-56
2023/04/29 06:47:12;;;;;;;2.00;1.77;;;11.60;63.70;;;;;;5057009;28;20028;-57
2023/04/29 06:49:37;;;;;;;3.53;2.00;;;11.70;63.80;;;;;;5062162;28;20064;-58
2023/04/29 06:52:03;;;;;;;1.58;1.48;;;11.80;63.90;;;;;;5049184;28;20036;-58
2023/04/29 06:54:29;;;;;;;2.38;2.10;;;11.80;64.40;;;;;;5063362;28;20035;-57
2023/04/29 06:56:54;;;;;;;1.90;1.70;;;11.90;63.70;;;;;;5062309;28;20483;-55
2023/04/29 06:59:20;;;;;;;1.75;1.65;;;12.00;63.20;;;;;;5068043;28;20094;-56
2023/04/29 07:01:46;;;;;;;1.73;1.63;;;12.20;62.70;;;;;;5062535;28;20639;-57
2023/04/29 07:04:11;;;;;;;1.60;1.50;;;12.30;61.70;;;;;;5062265;28;20028;-59
2023/04/29 07:06:38;;;;;;;1.75;1.65;;;12.40;61.30;;;;;;5059263;28;20048;-57
2023/04/29 07:09:03;;;;;;;2.03;1.75;;;12.60;60.60;;;;;;5062279;28;20036;-59
2023/04/29 07:11:29;;;;;;;1.77;1.67;;;12.70;59.70;;;;;;5056815;28;20060;-54
2023/04/29 07:13:54;;;;;;;1.65;1.55;;;12.80;59.50;;;;;;5059275;28;20497;-57
2023/04/29 07:16:21;;;;;;;1.70;1.60;;;12.90;59.70;;;;;;5060918;28;20028;-57
2023/04/29 07:18:48;;;;;;;2.03;1.92;;;12.90;59.40;;;;;;5061824;28;20376;-58
2023/04/29 07:21:13;;;;;;;1.92;1.77;;;13.00;58.60;;;;;;5061832;28;20106;-58
2023/04/29 07:23:39;;;;;;;1.88;1.60;;;13.10;58.10;;;;;;5061294;28;20897;-58
2023/04/29 07:26:13;;;;;;;2.08;1.92;;;13.20;57.90;;;;;;5063900;28;20032;-57
2023/04/29 07:28:39;;;;;;;2.15;1.95;;;13.20;57.40;;;;;;5062252;28;20028;-57
2023/04/29 07:31:06;;;;;;;1.70;1.60;;;13.20;57.20;;;;;;5057136;28;20074;-58
2023/04/29 07:33:32;;;;;;;1.63;1.52;;;13.30;57.40;;;;;;5063889;28;20044;-55
2023/04/29 07:35:58;;;;;;;1.58;1.48;;;13.30;57.30;;;;;;5060189;28;20673;-57
2023/04/29 07:38:24;;;;;;;1.80;1.70;;;13.40;57.50;;;;;;5060837;28;20033;-58
2023/04/29 07:40:49;;;;;;;2.55;1.83;;;13.40;56.70;;;;;;5057072;28;20033;-58
2023/04/29 07:43:15;;;;;;;1.73;1.63;;;13.40;55.80;;;;;;5058760;28;20065;-58
2023/04/29 07:45:41;;;;;;;1.83;1.67;;;13.40;54.90;;;;;;5061575;28;20029;-58
2023/04/29 07:48:06;;;;;;;1.88;1.67;;;13.30;54.90;;;;;;5063211;28;20024;-58
2023/04/29 07:50:36;;;;;;;1.85;1.75;;;13.30;55.00;;;;;;5061862;28;20105;-58
2023/04/29 07:53:02;;;;;;;2.28;1.67;;;13.30;54.30;;;;;;5065322;28;20112;-57
2023/04/29 07:55:31;;;;;;;1.67;1.55;;;13.20;54.60;;;;;;5062666;28;20467;-56
2023/04/29 07:57:57;;;;;;;4.05;1.75;;;13.20;54.30;;;;;;5063894;28;20110;-56
2023/04/29 08:00:23;;;;;;;1.40;1.30;;;13.20;54.00;;;;;;5056934;28;20119;-56
2023/04/29 08:02:53;;;;;;;1.70;1.60;;;13.20;54.30;;;;;;5064911;28;20029;-56
2023/04/29 08:05:20;;;;;;;2.45;1.67;;;13.20;54.10;;;;;;5064222;28;20068;-56
2023/04/29 08:07:48;;;;;;;2.08;1.85;;;13.20;53.30;;;;;;5061220;28;20044;-59
2023/04/29 08:10:15;;;;;;;2.42;1.70;;;13.10;52.80;;;;;;5064965;28;20045;-57
2023/04/29 08:12:41;;;;;;;1.70;1.60;;;13.00;52.40;;;;;;5059890;28;20041;-55
2023/04/29 08:15:07;;;;;;;1.20;1.20;;;13.00;52.50;;;;;;5061334;28;20028;-57
2023/04/29 08:17:33;;;;;;;1.60;1.50;;;13.00;53.60;;;;;;5066454;28;20483;-56
2023/04/29 08:19:58;;;;;;;1.80;1.70;;;12.90;52.80;;;;;;5060757;28;20089;-57
2023/04/29 08:22:24;;;;;;;2.05;1.83;;;12.90;52.70;;;;;;5061003;28;20036;-56
2023/04/29 08:24:49;;;;;;;1.98;1.85;;;12.90;52.10;;;;;;5065378;28;20536;-57
2023/04/29 08:27:15;;;;;;;1.35;1.25;;;12.90;52.50;;;;;;5061261;28;20036;-55
2023/04/29 08:29:41;;;;;;;1.98;1.33;;;12.80;53.20;;;;;;5066678;28;20035;-56
2023/04/29 08:32:07;;;;;;;2.47;1.58;;;12.90;52.90;;;;;;5069532;28;20040;-55
2023/04/29 08:34:35;;;;;;;1.60;1.50;;;12.90;52.60;;;;;;5067900;28;20040;-57
2023/04/29 08:37:01;;;;;;;1.40;1.30;;;12.90;52.50;;;;;;5069033;28;20032;-49
2023/04/29 08:39:29;;;;;;;1.70;1.60;;;12.90;52.70;;;;;;5064394;28;20041;-48
2023/04/29 08:41:56;;;;;;;1.42;1.33;;;12.90;53.50;;;;;;5065766;28;20024;-58
2023/04/29 08:44:22;;;;;;;1.85;1.70;;;12.90;53.00;;;;;;5069193;28;20382;-57
2023/04/29 08:46:49;;;;;;;1.98;1.58;;;12.90;52.70;;;;;;5059595;28;20035;-57
2023/04/29 08:49:15;;;;;;;1.50;1.40;;;12.90;52.70;;;;;;5068977;28;20451;-58
2023/04/29 08:51:41;;;;;;;1.85;1.55;;;12.90;53.00;;;;;;5065644;28;20033;-59
2023/04/29 08:54:06;;;;;;;1.40;1.30;;;12.90;52.80;;;;;;5062321;28;20090;-58
2023/04/29 08:56:33;;;;;;;1.92;1.77;;;13.00;53.00;;;;;;5063901;28;20051;-60
2023/04/29 08:59:01;;;;;;;1.98;1.48;;;13.00;52.90;;;;;;5059682;28;20102;-59
2023/04/29 09:01:28;;;;;;;2.70;1.70;;;13.00;52.60;;;;;;5055298;28;20036;-59
2023/04/29 09:04:17;;;;;;;1.58;1.48;;;13.00;52.40;;;;;;5062028;28;20047;-60
2023/04/29 09:06:42;;;;;;;1.30;1.20;;;13.00;52.60;;;;;;5060531;28;20082;-58
2023/04/29 09:09:09;;;;;;;1.67;1.58;;;13.10;53.00;;;;;;5064745;28;20028;-59
2023/04/29 09:11:36;;;;;;;3.63;1.80;;;13.10;53.10;;;;;;5063857;28;20058;-59
2023/04/29 09:14:03;;;;;;;1.38;1.27;;;13.20;52.90;;;;;;5060660;28;20028;-61
2023/04/29 09:16:29;;;;;;;1.70;1.60;;;13.20;52.70;;;;;;5061934;28;20455;-58
2023/04/29 09:18:55;;;;;;;2.15;1.40;;;13.20;52.40;;;;;;5063669;28;20340;-60
2023/04/29 09:21:30;;;;;;;2.30;1.75;;;13.20;52.00;;;;;;5065883;28;20127;-58
2023/04/29 09:23:58;;;;;;;1.33;1.33;;;13.20;52.70;;;;;;5057824;28;20490;-60
2023/04/29 09:26:24;;;;;;;2.05;1.45;;;13.20;52.50;;;;;;5060409;28;20020;-60
2023/04/29 09:29:07;;;;;;;2.47;1.38;;;13.20;52.80;;;;;;5061569;28;20031;-59
2023/04/29 09:31:32;;;;;;;1.50;1.40;;;13.30;53.30;;;;;;5065246;28;20039;-60
2023/04/29 09:33:58;;;;;;;3.13;1.45;;;13.30;53.50;;;;;;5063507;28;20386;-59
2023/04/29 09:36:44;;;;;;;1.65;1.40;;;13.40;53.20;;;;;;5072098;28;20020;-58
2023/04/29 09:39:12;;;;;;;2.47;1.60;;;13.30;52.00;;;;;;5064511;28;20471;-60
2023/04/29 09:41:39;;;;;;;1.30;1.20;;;13.30;52.30;;;;;;5062291;28;20028;-57
2023/04/29 09:44:06;;;;;;;2.13;1.30;;;13.30;52.50;;;;;;5068838;28;20351;-59
2023/04/29 09:46:33;;;;;;;1.38;1.27;;;13.30;52.80;;;;;;5064481;28;20032;-59
2023/04/29 09:48:59;;;;;;;3.40;1.42;;;13.30;53.00;;;;;;5060981;28;20124;-59
2023/04/29 09:51:25;;;;;;;1.40;1.30;;;13.30;52.90;;;;;;5065098;28;20076;-47
2023/04/29 09:53:51;;;;;;;1.58;1.40;;;13.40;52.90;;;;;;5070282;28;20439;-49
2023/04/29 09:56:16;;;;;;;1.95;1.52;;;13.40;52.30;;;;;;5065804;28;20426;-58
2023/04/29 09:58:42;;;;;;;2.80;1.75;;;13.40;52.40;;;;;;5065735;28;20062;-60
2023/04/29 10:01:09;;;;;;;1.63;1.40;;;13.40;52.30;;;;;;5059616;28;20032;-60
2023/04/29 10:03:38;;;;;;;1.20;1.10;;;13.40;52.30;;;;;;5055999;28;20047;-60
2023/04/29 10:06:05;;;;;;;1.23;1.23;;;13.30;52.30;;;;;;5061267;28;20170;-59
2023/04/29 10:08:32;;;;;;;2.03;1.35;;;13.30;52.30;;;;;;5066954;28;20080;-58
2023/04/29 10:11:00;;;;;;;1.60;1.50;;;13.30;52.10;;;;;;5063838;28;20074;-58
2023/04/29 10:13:27;;;;;;;1.67;1.58;;;13.30;51.50;;;;;;5062997;28;20040;-58
2023/04/29 10:16:15;;;;;;;2.00;1.70;;;13.30;51.50;;;;;;5065998;28;20025;-61
2023/04/29 10:18:50;;;;;;;1.63;1.52;;;13.30;52.20;;;;;;5063007;28;20082;-59
2023/04/29 10:21:21;;;;;;;1.55;1.45;;;13.30;52.90;;;;;;5062571;28;20044;-59
2023/04/29 10:23:48;;;;;;;1.50;1.40;;;13.30;53.20;;;;;;5062152;28;20039;-58
2023/04/29 10:26:15;;;;;;;1.50;1.40;;;13.40;53.40;;;;;;5062302;28;20040;-59
2023/04/29 10:28:44;;;;;;;3.53;1.50;;;13.40;53.40;;;;;;5065528;28;20040;-60
2023/04/29 10:31:12;;;;;;;2.55;1.52;;;13.40;53.30;;;;;;5064167;28;20036;-59
2023/04/29 10:33:42;;;;;;;2.70;1.50;;;13.40;52.60;;;;;;5063001;28;20068;-59
2023/04/29 10:36:09;;;;;;;1.60;1.50;;;13.30;52.20;;;;;;5061514;28;20025;-58
2023/04/29 10:38:49;;;;;;;1.40;1.40;;;13.30;51.90;;;;;;5062913;28;20123;-58
2023/04/29 10:41:24;;;;;;;1.67;1.58;;;13.30;52.50;;;;;;5063561;28;20501;-59
2023/04/29 10:43:54;;;;;;;1.45;1.35;;;13.30;52.60;;;;;;5073122;28;20024;-58
2023/04/29 10:46:27;;;;;;;1.50;1.45;;;13.30;52.60;;;;;;5063771;28;20036;-59
2023/04/29 10:48:59;;;;;;;1.90;1.70;;;13.30;52.60;;;;;;5065762;28;20123;-59
2023/04/29 10:51:44;;;;;;;1.75;1.65;;;13.30;51.90;;;;;;5063761;28;20395;-58
2023/04/29 10:54:24;;;;;;;1.85;1.42;;;13.30;51.40;;;;;;5065988;28;20076;-58
2023/04/29 10:56:51;;;;;;;1.48;1.40;;;13.20;51.60;;;;;;5063082;28;20039;-53
2023/04/29 10:59:41;;;;;;;3.33;1.90;;;13.20;51.60;;;;;;5063187;28;20108;-48
2023/04/29 11:02:08;;;;;;;1.92;1.75;;;13.20;51.60;;;;;;5066544;28;20038;-51
2023/04/29 11:04:34;;;;;;;1.88;1.38;;;13.20;51.70;;;;;;5062452;28;20428;-50
2023/04/29 11:07:01;;;;;;;1.58;1.48;;;13.20;51.90;;;;;;5062462;28;20052;-50
2023/04/29 11:09:37;;;;;;;1.50;1.40;;;13.20;52.00;;;;;;5060715;28;20052;-54
2023/04/29 11:12:04;;;;;;;1.55;1.45;;;13.20;52.50;;;;;;5056831;28;20025;-56
2023/04/29 11:14:36;;;;;;;1.60;1.50;;;13.20;52.70;;;;;;5057843;28;21369;-51
2023/04/29 11:17:14;;;;;;;1.90;1.80;;;13.30;51.90;;;;;;5060984;28;20117;-60
2023/04/29 11:19:44;;;;;;;1.58;1.48;;;13.30;52.30;;;;;;5065801;28;20033;-59
2023/04/29 11:22:16;;;;;;;1.55;1.45;;;13.30;52.20;;;;;;5061895;28;20032;-59
2023/04/29 11:24:53;;;;;;;1.70;1.50;;;13.30;52.00;;;;;;5069607;28;20652;-58
2023/04/29 11:27:24;;;;;;;2.50;1.58;;;13.20;51.50;;;;;;5068912;28;20053;-54
2023/04/29 11:29:50;;;;;;;1.50;1.40;;;13.20;52.30;;;;;;5066165;28;20093;-49
2023/04/29 11:32:20;;;;;;;1.45;1.35;;;13.20;52.30;;;;;;5063022;28;20055;-59
2023/04/29 11:34:46;;;;;;;2.13;1.55;;;13.20;52.50;;;;;;5061393;28;20228;-60
2023/04/29 11:37:11;;;;;;;1.40;1.40;;;13.20;52.90;;;;;;5055749;28;20043;-60
2023/04/29 11:39:37;;;;;;;1.50;1.40;;;13.20;53.20;;;;;;5064744;28;20064;-60
2023/04/29 11:42:07;;;;;;;1.80;1.52;;;13.20;53.00;;;;;;5064069;28;20045;-60
2023/04/29 11:44:34;;;;;;;1.33;1.33;;;13.20;52.50;;;;;;5064513;28;20028;-61
2023/04/29 11:47:02;;;;;;;1.55;1.45;;;13.20;52.00;;;;;;5065829;28;20024;-60
2023/04/29 11:49:34;;;;;;;1.35;1.27;;;13.20;52.20;;;;;;5062634;28;20040;-59
2023/04/29 11:52:00;;;;;;;1.55;1.40;;;13.20;52.20;;;;;;5065625;28;20059;-60
2023/04/29 11:54:27;;;;;;;1.52;1.42;;;13.30;53.30;;;;;;5063630;28;20115;-61
2023/04/29 11:56:54;;;;;;;1.52;1.42;;;13.30;52.60;;;;;;5065306;28;20434;-60
2023/04/29 11:59:21;;;;;;;1.83;1.73;;;13.30;52.60;;;;;;5059373;28;20033;-59
2023/04/29 12:01:49;;;;;;;2.22;1.80;;;13.30;52.50;;;;;;5061764;28;20088;-60
2023/04/29 12:04:16;;;;;;;1.60;1.50;;;13.30;52.00;;;;;;5064830;28;20017;-61
2023/04/29 12:06:41;;;;;;;1.60;1.50;;;13.30;52.30;;;;;;5065653;28;20035;-61
2023/04/29 12:09:07;;;;;;;1.70;1.60;;;13.30;52.70;;;;;;5072059;28;20037;-61
2023/04/29 12:11:34;;;;;;;1.60;1.50;;;13.30;52.80;;;;;;5074229;28;20045;-57
2023/04/29 12:14:02;;;;;;;1.75;1.48;;;13.40;52.20;;;;;;5067201;28;20066;-60
2023/04/29 12:16:29;;;;;;;1.52;1.42;;;13.40;52.80;;;;;;5065480;28;20044;-60
2023/04/29 12:18:55;;;;;;;1.23;1.15;;;13.40;52.90;;;;;;5067343;28;20028;-61
2023/04/29 12:21:21;;;;;;;2.33;1.70;;;13.50;52.60;;;;;;5071305;28;20355;-61
2023/04/29 12:23:47;;;;;;;1.67;1.42;;;13.50;51.90;;;;;;5066341;28;20024;-60
2023/04/29 12:26:13;;;;;;;1.50;1.40;;;13.50;51.80;;;;;;5069445;28;20031;-60
2023/04/29 12:28:42;;;;;;;1.45;1.35;;;13.60;51.70;;;;;;5066285;28;20048;-58
2023/04/29 12:31:12;;;;;;;1.60;1.50;;;13.60;51.70;;;;;;5058607;28;20039;-60
2023/04/29 12:33:41;;;;;;;1.70;1.60;;;13.60;51.40;;;;;;5064293;28;20121;-61
2023/04/29 12:36:18;;;;;;;1.80;1.70;;;13.70;51.20;;;;;;5065336;28;20032;-60
2023/04/29 12:38:44;;;;;;;1.80;1.70;;;13.70;51.60;;;;;;5063110;28;20044;-60
2023/04/29 12:41:13;;;;;;;2.83;1.60;;;13.70;51.30;;;;;;5068471;28;20168;-61
2023/04/29 12:43:39;;;;;;;1.45;1.40;;;13.70;50.90;;;;;;5068334;28;20100;-61
2023/04/29 12:46:09;;;;;;;1.55;1.48;;;13.80;51.10;;;;;;5062288;28;20607;-61
2023/04/29 12:48:54;;;;;;;1.83;1.57;;;13.80;51.00;;;;;;5062415;28;20043;-60
2023/04/29 12:51:19;;;;;;;1.60;1.50;;;13.80;50.70;;;;;;5069716;28;20036;-59
2023/04/29 12:53:45;;;;;;;1.50;1.40;;;13.80;51.10;;;;;;5067169;28;20043;-60